Time,TemperatureF,DewpointF,PressureIn,WindDirection,WindDirectionDegrees,WindSpeedMPH,WindSpeedGustMPH,Humidity,HourlyPrecipIn,Conditions,Clouds,dailyrainin,SoftwareType,DateUTC
2013-07-24 00:02:00,63.0,57.0,29.97,NW,313,0.0,1.0,80,0.00,,,0.01,,2013-07-24 05:02:00,
2013-07-24 00:11:00,63.0,56.0,29.97,NW,313,0.0,1.0,79,0.00,,,0.01,,2013-07-24 05:11:00,
2013-07-24 00:22:00,63.0,56.0,29.97,SSE,151,0.0,3.0,77,0.00,,,0.01,,2013-07-24 05:22:00,
2013-07-24 00:32:00,63.0,56.0,29.97,West,267,0.0,2.0,77,0.00,,,0.01,,2013-07-24 05:32:00,
2013-07-24 00:43:00,63.0,55.0,29.97,West,267,0.0,1.0,76,0.00,,,0.01,,2013-07-24 05:43:00,
2013-07-24 00:52:00,63.0,55.0,29.97,SE,136,0.0,2.0,76,0.00,,,0.01,,2013-07-24 05:52:00,
2013-07-24 01:01:00,63.0,55.0,29.97,SE,136,0.0,1.0,76,0.00,,,0.01,,2013-07-24 06:01:00,
2013-07-24 01:24:00,63.0,56.0,29.97,SE,136,0.0,0.0,77,0.00,,,0.01,,2013-07-24 06:24:00,
2013-07-24 01:34:00,62.0,55.0,29.98,SE,136,0.0,0.0,78,0.00,,,0.01,,2013-07-24 06:34:00,
2013-07-24 01:43:00,62.0,55.0,29.98,SE,136,0.0,0.0,78,0.00,,,0.01,,2013-07-24 06:43:00,
2013-07-24 01:53:00,62.0,55.0,29.98,SE,136,0.0,0.0,79,0.00,,,0.01,,2013-07-24 06:53:00,
2013-07-24 02:02:00,61.0,55.0,29.98,SE,136,0.0,0.0,80,0.00,,,0.01,,2013-07-24 07:02:00,
2013-07-24 02:12:00,61.0,55.0,29.99,SE,136,0.0,0.0,80,0.00,,,0.01,,2013-07-24 07:12:00,
2013-07-24 02:22:00,61.0,55.0,29.99,SE,136,0.0,0.0,80,0.00,,,0.01,,2013-07-24 07:22:00,
2013-07-24 02:32:00,60.0,54.0,29.99,SE,136,0.0,0.0,81,0.00,,,0.01,,2013-07-24 07:32:00,
2013-07-24 02:43:00,60.0,54.0,29.99,SE,136,0.0,0.0,82,0.00,,,0.01,,2013-07-24 07:43:00,
2013-07-24 02:52:00,60.0,54.0,29.99,SE,136,0.0,0.0,82,0.00,,,0.01,,2013-07-24 07:52:00,
2013-07-24 03:02:00,59.0,54.0,29.99,SE,136,0.0,0.0,83,0.00,,,0.01,,2013-07-24 08:02:00,
2013-07-24 03:12:00,59.0,54.0,29.99,SE,136,0.0,0.0,83,0.00,,,0.01,,2013-07-24 08:12:00,
2013-07-24 03:22:00,59.0,54.0,29.99,SE,136,0.0,0.0,84,0.00,,,0.01,,2013-07-24 08:22:00,
2013-07-24 03:32:00,59.0,54.0,29.98,SE,136,0.0,0.0,84,0.00,,,0.01,,2013-07-24 08:32:00,
2013-07-24 03:43:00,59.0,54.0,29.99,SE,136,0.0,0.0,84,0.00,,,0.01,,2013-07-24 08:43:00,
2013-07-24 03:52:00,58.0,54.0,29.99,SE,136,0.0,0.0,85,0.00,,,0.01,,2013-07-24 08:52:00,
2013-07-24 04:02:00,58.0,54.0,29.99,SE,136,0.0,0.0,85,0.00,,,0.01,,2013-07-24 09:02:00,
2013-07-24 04:12:00,58.0,54.0,30.00,SE,136,0.0,0.0,85,0.00,,,0.00,,2013-07-24 09:12:00,
2013-07-24 04:22:00,58.0,54.0,30.00,SE,136,0.0,0.0,85,0.00,,,0.00,,2013-07-24 09:22:00,
2013-07-24 04:32:00,58.0,54.0,30.00,SE,136,0.0,0.0,85,0.00,,,0.00,,2013-07-24 09:32:00,
2013-07-24 04:43:00,58.0,54.0,30.01,SE,136,0.0,0.0,86,0.00,,,0.00,,2013-07-24 09:43:00,
2013-07-24 04:53:00,57.0,53.0,30.01,SE,136,0.0,0.0,86,0.00,,,0.00,,2013-07-24 09:53:00,
2013-07-24 05:02:00,57.0,53.0,30.01,SE,136,0.0,0.0,86,0.00,,,0.00,,2013-07-24 10:02:00,
2013-07-24 05:12:00,57.0,53.0,30.01,SE,136,0.0,0.0,86,0.00,,,0.00,,2013-07-24 10:12:00,
2013-07-24 05:22:00,57.0,53.0,30.01,SE,136,0.0,0.0,86,0.00,,,0.00,,2013-07-24 10:22:00,
2013-07-24 05:33:00,57.0,53.0,30.01,SE,136,0.0,0.0,86,0.00,,,0.00,,2013-07-24 10:33:00,
2013-07-24 05:43:00,57.0,53.0,30.02,SE,136,0.0,0.0,87,0.00,,,0.00,,2013-07-24 10:43:00,
2013-07-24 05:53:00,56.0,52.0,30.02,SE,136,0.0,0.0,87,0.00,,,0.00,,2013-07-24 10:53:00,
2013-07-24 06:02:00,56.0,52.0,30.03,SE,136,0.0,0.0,87,0.00,,,0.00,,2013-07-24 11:02:00,
2013-07-24 06:12:00,56.0,52.0,30.03,SE,136,0.0,0.0,87,0.00,,,0.00,,2013-07-24 11:12:00,
2013-07-24 06:22:00,56.0,52.0,30.03,SE,136,0.0,0.0,87,0.00,,,0.00,,2013-07-24 11:22:00,
2013-07-24 06:32:00,56.0,52.0,30.03,SE,136,0.0,0.0,87,0.00,,,0.00,,2013-07-24 11:32:00,
2013-07-24 06:43:00,56.0,52.0,30.04,SE,136,0.0,0.0,87,0.00,,,0.00,,2013-07-24 11:43:00,
2013-07-24 07:02:00,56.0,52.0,30.04,SE,136,0.0,0.0,88,0.00,,,0.00,,2013-07-24 12:02:00,
2013-07-24 07:12:00,56.0,52.0,30.04,SE,136,0.0,0.0,88,0.00,,,0.00,,2013-07-24 12:12:00,
2013-07-24 07:22:00,57.0,53.0,30.04,SE,136,0.0,0.0,88,0.00,,,0.00,,2013-07-24 12:22:00,
2013-07-24 07:32:00,57.0,53.0,30.05,SE,136,0.0,0.0,88,0.00,,,0.00,,2013-07-24 12:32:00,
2013-07-24 07:52:00,59.0,56.0,30.05,SE,136,0.0,0.0,89,0.00,,,0.00,,2013-07-24 12:52:00,
2013-07-24 08:02:00,59.0,56.0,30.06,SE,136,0.0,1.0,89,0.00,,,0.00,,2013-07-24 13:02:00,
2013-07-24 08:12:00,60.0,57.0,30.06,South,178,0.0,4.0,89,0.00,,,0.00,,2013-07-24 13:12:00,
2013-07-24 08:22:00,61.0,58.0,30.06,SSE,165,0.0,1.0,89,0.00,,,0.00,,2013-07-24 13:22:00,
2013-07-24 08:32:00,62.0,57.0,30.06,SSE,165,0.0,2.0,85,0.00,,,0.00,,2013-07-24 13:32:00,
2013-07-24 08:43:00,63.0,57.0,30.06,ESE,113,0.0,2.0,82,0.00,,,0.00,,2013-07-24 13:43:00,
2013-07-24 08:53:00,64.0,57.0,30.05,SE,126,1.0,6.0,79,0.00,,,0.00,,2013-07-24 13:53:00,
2013-07-24 09:02:00,64.0,57.0,30.05,SW,215,0.0,3.0,78,0.00,,,0.00,,2013-07-24 14:02:00,
2013-07-24 09:12:00,65.0,57.0,30.06,SW,214,0.0,2.0,75,0.00,,,0.00,,2013-07-24 14:12:00,
2013-07-24 09:22:00,65.0,56.0,30.05,SSW,194,0.0,3.0,74,0.00,,,0.00,,2013-07-24 14:22:00,
2013-07-24 09:32:00,66.0,58.0,30.06,NNW,338,0.0,2.0,76,0.00,,,0.00,,2013-07-24 14:32:00,
2013-07-24 09:43:00,67.0,58.0,30.05,NE,49,0.0,1.0,73,0.00,,,0.00,,2013-07-24 14:43:00,
2013-07-24 09:55:00,67.0,57.0,30.06,NE,55,0.0,1.0,70,0.00,,,0.00,,2013-07-24 14:55:00,
2013-07-24 10:02:00,68.0,57.0,30.06,East,96,0.0,3.0,67,0.00,,,0.00,,2013-07-24 15:02:00,
2013-07-24 10:22:00,69.0,57.0,30.06,SSE,152,1.0,3.0,65,0.00,,,0.00,,2013-07-24 15:22:00,
2013-07-24 10:33:00,70.0,55.0,30.06,SE,126,0.0,3.0,58,0.00,,,0.00,,2013-07-24 15:33:00,
2013-07-24 10:43:00,71.0,57.0,30.06,SE,125,0.0,5.0,62,0.00,,,0.00,,2013-07-24 15:43:00,
2013-07-24 10:52:00,71.0,56.0,30.06,SE,134,0.0,3.0,59,0.00,,,0.00,,2013-07-24 15:52:00,
2013-07-24 11:02:00,72.0,57.0,30.06,ESE,105,0.0,3.0,59,0.00,,,0.00,,2013-07-24 16:02:00,
2013-07-24 11:12:00,73.0,55.0,30.06,SSE,155,0.0,4.0,54,0.00,,,0.00,,2013-07-24 16:12:00,
2013-07-24 11:22:00,72.0,55.0,30.06,ESE,115,0.0,5.0,55,0.00,,,0.00,,2013-07-24 16:22:00,
2013-07-24 11:32:00,72.0,58.0,30.06,NW,311,0.0,7.0,61,0.00,,,0.00,,2013-07-24 16:32:00,
2013-07-24 11:43:00,73.0,57.0,30.07,SSE,161,1.0,4.0,57,0.00,,,0.00,,2013-07-24 16:43:00,
2013-07-24 11:53:00,74.0,57.0,30.07,ESE,109,0.0,4.0,55,0.00,,,0.00,,2013-07-24 16:53:00,
2013-07-24 12:02:00,74.0,55.0,30.07,ESE,109,0.0,1.0,51,0.00,,,0.00,,2013-07-24 17:02:00,
2013-07-24 12:12:00,74.0,56.0,30.07,ESE,104,0.0,2.0,53,0.00,,,0.00,,2013-07-24 17:12:00,
2013-07-24 12:22:00,75.0,56.0,30.07,NNW,341,1.0,4.0,52,0.00,,,0.00,,2013-07-24 17:22:00,
2013-07-24 12:33:00,76.0,54.0,30.07,NW,323,0.0,4.0,47,0.00,,,0.00,,2013-07-24 17:33:00,
2013-07-24 12:53:00,76.0,58.0,30.06,SE,129,0.0,3.0,53,0.00,,,0.00,,2013-07-24 17:53:00,
2013-07-24 13:02:00,76.0,54.0,30.06,SSE,167,1.0,4.0,46,0.00,,,0.00,,2013-07-24 18:02:00,
2013-07-24 13:12:00,76.0,59.0,30.06,SSE,167,0.0,3.0,55,0.00,,,0.00,,2013-07-24 18:12:00,
2013-07-24 13:22:00,76.0,54.0,30.06,South,171,0.0,2.0,46,0.00,,,0.00,,2013-07-24 18:22:00,
2013-07-24 13:33:00,76.0,57.0,30.05,South,180,1.0,5.0,51,0.00,,,0.00,,2013-07-24 18:33:00,
2013-07-24 13:43:00,77.0,55.0,30.05,SSW,193,0.0,4.0,47,0.00,,,0.00,,2013-07-24 18:43:00,
2013-07-24 13:52:00,76.0,54.0,30.05,NNW,342,0.0,2.0,46,0.00,,,0.00,,2013-07-24 18:52:00,
2013-07-24 14:02:00,77.0,54.0,30.05,NNW,346,1.0,3.0,45,0.00,,,0.00,,2013-07-24 19:02:00,
2013-07-24 14:12:00,77.0,54.0,30.05,North,5,0.0,5.0,45,0.00,,,0.00,,2013-07-24 19:12:00,
2013-07-24 14:22:00,78.0,57.0,30.05,North,355,0.0,2.0,48,0.00,,,0.00,,2013-07-24 19:22:00,
2013-07-24 14:32:00,78.0,57.0,30.05,ESE,110,0.0,3.0,49,0.00,,,0.00,,2013-07-24 19:32:00,
2013-07-24 14:43:00,76.0,55.0,30.05,NNW,338,0.0,1.0,49,0.00,,,0.00,,2013-07-24 19:43:00,
2013-07-24 14:53:00,76.0,58.0,30.05,NNW,338,0.0,0.0,53,0.00,,,0.00,,2013-07-24 19:53:00,
2013-07-24 15:13:00,77.0,57.0,30.04,NW,314,0.0,3.0,50,0.00,,,0.00,,2013-07-24 20:13:00,
2013-07-24 15:23:00,76.0,57.0,30.04,NW,314,0.0,1.0,52,0.00,,,0.00,,2013-07-24 20:23:00,
2013-07-24 15:32:00,78.0,58.0,30.04,North,350,0.0,2.0,51,0.00,,,0.00,,2013-07-24 20:32:00,
2013-07-24 15:43:00,78.0,58.0,30.03,NE,53,0.0,2.0,50,0.00,,,0.00,,2013-07-24 20:43:00,
2013-07-24 15:52:00,78.0,58.0,30.03,ENE,59,0.0,1.0,51,0.00,,,0.00,,2013-07-24 20:52:00,
2013-07-24 16:02:00,78.0,57.0,30.03,ENE,58,0.0,1.0,48,0.00,,,0.00,,2013-07-24 21:02:00,
2013-07-24 16:12:00,79.0,53.0,30.04,North,10,0.0,2.0,40,0.00,,,0.00,,2013-07-24 21:12:00,
2013-07-24 16:22:00,79.0,54.0,30.04,NE,40,0.0,1.0,42,0.00,,,0.00,,2013-07-24 21:22:00,
2013-07-24 16:32:00,79.0,51.0,30.03,NE,47,0.0,1.0,38,0.00,,,0.00,,2013-07-24 21:32:00,
2013-07-24 16:52:00,77.0,57.0,30.03,NE,47,0.0,0.0,50,0.00,,,0.00,,2013-07-24 21:52:00,
2013-07-24 17:02:00,78.0,55.0,30.03,NE,47,0.0,1.0,45,0.00,,,0.00,,2013-07-24 22:02:00,
2013-07-24 17:12:00,79.0,56.0,30.03,NE,47,0.0,1.0,46,0.00,,,0.00,,2013-07-24 22:12:00,
2013-07-24 17:22:00,79.0,56.0,30.03,North,5,1.0,5.0,45,0.00,,,0.00,,2013-07-24 22:22:00,
2013-07-24 17:32:00,79.0,53.0,30.03,ENE,67,0.0,1.0,40,0.00,,,0.00,,2013-07-24 22:32:00,
2013-07-24 17:43:00,79.0,54.0,30.03,ENE,67,0.0,1.0,42,0.00,,,0.00,,2013-07-24 22:43:00,
2013-07-24 17:53:00,80.0,53.0,30.03,ENE,67,0.0,1.0,40,0.00,,,0.00,,2013-07-24 22:53:00,
2013-07-24 18:02:00,80.0,57.0,30.03,ENE,67,0.0,1.0,45,0.00,,,0.00,,2013-07-24 23:02:00,
2013-07-24 18:12:00,80.0,58.0,30.02,ENE,67,0.0,0.0,47,0.00,,,0.00,,2013-07-24 23:12:00,
2013-07-24 18:22:00,80.0,58.0,30.02,ENE,67,0.0,0.0,47,0.00,,,0.00,,2013-07-24 23:22:00,
2013-07-24 18:32:00,80.0,55.0,30.03,ENE,67,0.0,0.0,42,0.00,,,0.00,,2013-07-24 23:32:00,
2013-07-24 18:43:00,79.0,55.0,30.02,ENE,67,0.0,1.0,44,0.00,,,0.00,,2013-07-24 23:43:00,
2013-07-24 18:52:00,78.0,54.0,30.03,ENE,67,0.0,0.0,43,0.00,,,0.00,,2013-07-24 23:52:00,
2013-07-24 19:02:00,77.0,53.0,30.02,ENE,67,0.0,0.0,44,0.00,,,0.00,,2013-07-25 00:02:00,
2013-07-24 19:12:00,76.0,55.0,30.02,ENE,67,0.0,0.0,48,0.00,,,0.00,,2013-07-25 00:12:00,
2013-07-24 19:22:00,75.0,56.0,30.02,ENE,67,0.0,0.0,51,0.00,,,0.00,,2013-07-25 00:22:00,
2013-07-24 19:33:00,74.0,56.0,30.02,ENE,67,0.0,0.0,53,0.00,,,0.00,,2013-07-25 00:33:00,
2013-07-24 19:43:00,73.0,56.0,30.02,ENE,67,0.0,0.0,55,0.00,,,0.00,,2013-07-25 00:43:00,
2013-07-24 20:02:00,71.0,56.0,30.02,NE,53,0.0,0.0,60,0.00,,,0.00,,2013-07-25 01:02:00,
2013-07-24 20:12:00,70.0,57.0,30.02,NE,53,0.0,0.0,63,0.00,,,0.00,,2013-07-25 01:12:00,
2013-07-24 20:22:00,70.0,58.0,30.03,NE,53,0.0,0.0,65,0.00,,,0.00,,2013-07-25 01:22:00,
2013-07-24 20:32:00,69.0,58.0,30.02,NE,53,0.0,0.0,69,0.00,,,0.00,,2013-07-25 01:32:00,
2013-07-24 20:43:00,67.0,58.0,30.03,NE,53,0.0,0.0,72,0.00,,,0.00,,2013-07-25 01:43:00,
2013-07-24 21:12:00,65.0,57.0,30.02,NE,53,0.0,0.0,76,0.00,,,0.00,,2013-07-25 02:12:00,
2013-07-24 21:22:00,64.0,57.0,30.02,NE,53,0.0,0.0,77,0.00,,,0.00,,2013-07-25 02:22:00,
2013-07-24 21:33:00,64.0,57.0,30.03,NE,53,0.0,0.0,78,0.00,,,0.00,,2013-07-25 02:33:00,
2013-07-24 21:43:00,63.0,57.0,30.03,NE,53,0.0,0.0,80,0.00,,,0.00,,2013-07-25 02:43:00,
2013-07-24 21:53:00,63.0,57.0,30.03,NE,53,0.0,0.0,81,0.00,,,0.00,,2013-07-25 02:53:00,
2013-07-24 22:02:00,62.0,56.0,30.03,NE,53,0.0,0.0,82,0.00,,,0.00,,2013-07-25 03:02:00,
2013-07-24 22:15:00,62.0,56.0,30.04,NE,53,0.0,0.0,82,0.00,,,0.00,,2013-07-25 03:15:00,
2013-07-24 22:24:00,62.0,57.0,30.05,NE,53,0.0,0.0,83,0.00,,,0.00,,2013-07-25 03:24:00,
2013-07-24 22:37:00,61.0,56.0,30.05,NE,53,0.0,0.0,83,0.00,,,0.00,,2013-07-25 03:37:00,
2013-07-24 22:44:00,61.0,56.0,30.05,NE,53,0.0,0.0,83,0.00,,,0.00,,2013-07-25 03:44:00,
2013-07-24 22:52:00,61.0,56.0,30.06,NE,53,0.0,0.0,84,0.00,,,0.00,,2013-07-25 03:52:00,
2013-07-24 23:02:00,61.0,56.0,30.06,NE,53,0.0,0.0,84,0.00,,,0.00,,2013-07-25 04:02:00,
2013-07-24 23:12:00,60.0,55.0,30.06,NE,53,0.0,0.0,85,0.00,,,0.00,,2013-07-25 04:12:00,
2013-07-24 23:22:00,60.0,55.0,30.05,NE,53,0.0,0.0,85,0.00,,,0.00,,2013-07-25 04:22:00,
2013-07-24 23:32:00,60.0,55.0,30.05,NE,53,0.0,0.0,85,0.00,,,0.00,,2013-07-25 04:32:00,
2013-07-24 23:43:00,60.0,55.0,30.05,NE,53,0.0,0.0,85,0.00,,,0.00,,2013-07-25 04:43:00,
2013-07-24 23:53:00,60.0,55.0,30.05,NE,53,0.0,0.0,85,0.00,,,0.00,,2013-07-25 04:53:00,